sensor_id;sensor_type;location;lat;lon;timestamp;temperature;humidity
20648;DHT22;10483;44.646;10.924;2022-07-24T00:00:44;30.90;68.40
20648;DHT22;10483;44.646;10.924;2022-07-24T00:03:10;30.90;68.50
20648;DHT22;10483;44.646;10.924;2022-07-24T00:05:37;30.90;68.50
20648;DHT22;10483;44.646;10.924;2022-07-24T00:08:04;30.90;68.50
20648;DHT22;10483;44.646;10.924;2022-07-24T00:10:31;30.90;68.40
20648;DHT22;10483;44.646;10.924;2022-07-24T00:12:58;30.90;68.40
20648;DHT22;10483;44.646;10.924;2022-07-24T00:15:24;30.90;68.40
20648;DHT22;10483;44.646;10.924;2022-07-24T00:17:51;30.90;68.70
20648;DHT22;10483;44.646;10.924;2022-07-24T00:20:18;30.80;68.60
20648;DHT22;10483;44.646;10.924;2022-07-24T00:22:44;30.80;68.60
20648;DHT22;10483;44.646;10.924;2022-07-24T00:25:11;30.80;68.70
20648;DHT22;10483;44.646;10.924;2022-07-24T00:27:38;30.80;68.60
20648;DHT22;10483;44.646;10.924;2022-07-24T00:30:05;30.80;68.60
20648;DHT22;10483;44.646;10.924;2022-07-24T00:32:32;30.80;68.70
20648;DHT22;10483;44.646;10.924;2022-07-24T00:34:58;30.70;68.70
20648;DHT22;10483;44.646;10.924;2022-07-24T00:37:25;30.70;68.90
20648;DHT22;10483;44.646;10.924;2022-07-24T00:39:53;30.70;69.00
20648;DHT22;10483;44.646;10.924;2022-07-24T00:42:20;30.70;69.10
20648;DHT22;10483;44.646;10.924;2022-07-24T00:44:46;30.70;69.30
20648;DHT22;10483;44.646;10.924;2022-07-24T00:47:13;30.60;69.40
20648;DHT22;10483;44.646;10.924;2022-07-24T00:49:40;30.60;69.60
20648;DHT22;10483;44.646;10.924;2022-07-24T00:52:06;30.60;69.80
20648;DHT22;10483;44.646;10.924;2022-07-24T00:54:33;30.50;69.80
20648;DHT22;10483;44.646;10.924;2022-07-24T00:57:00;30.50;70.00
20648;DHT22;10483;44.646;10.924;2022-07-24T00:59:27;30.50;70.00
20648;DHT22;10483;44.646;10.924;2022-07-24T01:01:53;30.50;70.00
20648;DHT22;10483;44.646;10.924;2022-07-24T01:04:21;30.50;70.30
20648;DHT22;10483;44.646;10.924;2022-07-24T01:06:48;30.50;70.50
20648;DHT22;10483;44.646;10.924;2022-07-24T01:09:15;30.50;70.50
20648;DHT22;10483;44.646;10.924;2022-07-24T01:11:42;30.40;70.50
20648;DHT22;10483;44.646;10.924;2022-07-24T01:14:10;30.40;70.60
20648;DHT22;10483;44.646;10.924;2022-07-24T01:16:37;30.40;70.70
20648;DHT22;10483;44.646;10.924;2022-07-24T01:19:04;30.30;70.70
20648;DHT22;10483;44.646;10.924;2022-07-24T01:21:30;30.30;71.10
20648;DHT22;10483;44.646;10.924;2022-07-24T01:23:57;30.30;71.20
20648;DHT22;10483;44.646;10.924;2022-07-24T01:26:24;30.30;71.30
20648;DHT22;10483;44.646;10.924;2022-07-24T01:28:51;30.30;71.40
20648;DHT22;10483;44.646;10.924;2022-07-24T01:31:17;30.30;71.80
20648;DHT22;10483;44.646;10.924;2022-07-24T01:33:44;30.30;72.00
20648;DHT22;10483;44.646;10.924;2022-07-24T01:36:11;30.30;72.20
20648;DHT22;10483;44.646;10.924;2022-07-24T01:38:37;30.30;72.50
20648;DHT22;10483;44.646;10.924;2022-07-24T01:41:04;30.30;72.60
20648;DHT22;10483;44.646;10.924;2022-07-24T01:43:31;30.30;72.80
20648;DHT22;10483;44.646;10.924;2022-07-24T01:45:57;30.20;72.80
20648;DHT22;10483;44.646;10.924;2022-07-24T01:48:24;30.30;73.10
20648;DHT22;10483;44.646;10.924;2022-07-24T01:50:51;30.20;73.40
20648;DHT22;10483;44.646;10.924;2022-07-24T01:53:17;30.20;73.90
20648;DHT22;10483;44.646;10.924;2022-07-24T01:55:44;30.20;74.30
20648;DHT22;10483;44.646;10.924;2022-07-24T01:58:10;30.20;74.60
20648;DHT22;10483;44.646;10.924;2022-07-24T02:00:37;30.10;74.60
20648;DHT22;10483;44.646;10.924;2022-07-24T02:03:04;30.10;74.80
20648;DHT22;10483;44.646;10.924;2022-07-24T02:05:31;30.00;74.70
20648;DHT22;10483;44.646;10.924;2022-07-24T02:07:59;30.10;75.10
20648;DHT22;10483;44.646;10.924;2022-07-24T02:10:28;30.00;75.70
20648;DHT22;10483;44.646;10.924;2022-07-24T02:12:56;30.00;76.00
20648;DHT22;10483;44.646;10.924;2022-07-24T02:15:23;29.90;77.00
20648;DHT22;10483;44.646;10.924;2022-07-24T02:17:53;29.90;77.20
20648;DHT22;10483;44.646;10.924;2022-07-24T02:20:20;29.90;78.00
20648;DHT22;10483;44.646;10.924;2022-07-24T02:22:46;29.80;78.20
20648;DHT22;10483;44.646;10.924;2022-07-24T02:25:13;29.80;78.60
20648;DHT22;10483;44.646;10.924;2022-07-24T02:27:40;29.80;78.90
20648;DHT22;10483;44.646;10.924;2022-07-24T02:30:14;29.80;79.20
20648;DHT22;10483;44.646;10.924;2022-07-24T02:32:40;29.80;79.40
20648;DHT22;10483;44.646;10.924;2022-07-24T02:35:08;29.70;80.30
20648;DHT22;10483;44.646;10.924;2022-07-24T02:37:38;29.70;81.40
20648;DHT22;10483;44.646;10.924;2022-07-24T02:40:07;29.70;81.70
20648;DHT22;10483;44.646;10.924;2022-07-24T02:42:35;29.70;82.20
20648;DHT22;10483;44.646;10.924;2022-07-24T02:45:03;29.60;83.00
20648;DHT22;10483;44.646;10.924;2022-07-24T02:47:30;29.60;83.30
20648;DHT22;10483;44.646;10.924;2022-07-24T02:49:57;29.60;83.60
20648;DHT22;10483;44.646;10.924;2022-07-24T02:52:23;29.50;83.60
20648;DHT22;10483;44.646;10.924;2022-07-24T02:54:50;29.50;83.80
20648;DHT22;10483;44.646;10.924;2022-07-24T02:57:17;29.50;84.00
20648;DHT22;10483;44.646;10.924;2022-07-24T02:59:43;29.50;84.00
20648;DHT22;10483;44.646;10.924;2022-07-24T03:02:12;29.50;83.90
20648;DHT22;10483;44.646;10.924;2022-07-24T03:04:38;29.50;83.90
20648;DHT22;10483;44.646;10.924;2022-07-24T03:07:05;29.40;83.80
20648;DHT22;10483;44.646;10.924;2022-07-24T03:09:32;29.50;84.00
20648;DHT22;10483;44.646;10.924;2022-07-24T03:11:58;29.40;83.80
20648;DHT22;10483;44.646;10.924;2022-07-24T03:14:25;29.40;83.60
20648;DHT22;10483;44.646;10.924;2022-07-24T03:16:52;29.40;83.40
20648;DHT22;10483;44.646;10.924;2022-07-24T03:19:18;29.40;83.00
20648;DHT22;10483;44.646;10.924;2022-07-24T03:21:45;29.40;82.40
20648;DHT22;10483;44.646;10.924;2022-07-24T03:24:11;29.40;82.20
20648;DHT22;10483;44.646;10.924;2022-07-24T03:26:38;29.40;82.10
20648;DHT22;10483;44.646;10.924;2022-07-24T03:29:05;29.40;81.80
20648;DHT22;10483;44.646;10.924;2022-07-24T03:31:31;29.40;81.20
20648;DHT22;10483;44.646;10.924;2022-07-24T03:33:58;29.40;80.80
20648;DHT22;10483;44.646;10.924;2022-07-24T03:36:24;29.40;80.20
20648;DHT22;10483;44.646;10.924;2022-07-24T03:38:51;29.30;79.60
20648;DHT22;10483;44.646;10.924;2022-07-24T03:41:18;29.30;79.50
20648;DHT22;10483;44.646;10.924;2022-07-24T03:43:44;29.20;79.30
20648;DHT22;10483;44.646;10.924;2022-07-24T03:46:11;29.20;79.40
20648;DHT22;10483;44.646;10.924;2022-07-24T03:48:37;29.30;79.30
20648;DHT22;10483;44.646;10.924;2022-07-24T03:51:04;29.20;79.20
20648;DHT22;10483;44.646;10.924;2022-07-24T03:53:31;29.20;79.20
20648;DHT22;10483;44.646;10.924;2022-07-24T03:55:58;29.10;79.20
20648;DHT22;10483;44.646;10.924;2022-07-24T03:58:25;28.90;79.30
20648;DHT22;10483;44.646;10.924;2022-07-24T04:00:52;28.90;79.50
20648;DHT22;10483;44.646;10.924;2022-07-24T04:03:18;28.80;79.80
20648;DHT22;10483;44.646;10.924;2022-07-24T04:05:45;28.80;79.80
20648;DHT22;10483;44.646;10.924;2022-07-24T04:08:12;28.80;80.00
20648;DHT22;10483;44.646;10.924;2022-07-24T04:10:38;28.90;80.20
20648;DHT22;10483;44.646;10.924;2022-07-24T04:13:05;28.90;80.50
20648;DHT22;10483;44.646;10.924;2022-07-24T04:15:32;29.00;80.50
20648;DHT22;10483;44.646;10.924;2022-07-24T04:17:58;29.00;81.10
20648;DHT22;10483;44.646;10.924;2022-07-24T04:20:25;29.00;81.30
20648;DHT22;10483;44.646;10.924;2022-07-24T04:22:51;29.00;81.60
20648;DHT22;10483;44.646;10.924;2022-07-24T04:25:18;29.00;82.10
20648;DHT22;10483;44.646;10.924;2022-07-24T04:27:45;29.00;82.40
20648;DHT22;10483;44.646;10.924;2022-07-24T04:30:13;29.10;83.40
20648;DHT22;10483;44.646;10.924;2022-07-24T04:32:40;29.10;83.80
20648;DHT22;10483;44.646;10.924;2022-07-24T04:35:07;29.10;83.80
20648;DHT22;10483;44.646;10.924;2022-07-24T04:37:34;29.10;83.80
20648;DHT22;10483;44.646;10.924;2022-07-24T04:40:00;29.10;83.80
20648;DHT22;10483;44.646;10.924;2022-07-24T04:42:27;29.10;83.80
20648;DHT22;10483;44.646;10.924;2022-07-24T04:44:54;29.10;83.80
20648;DHT22;10483;44.646;10.924;2022-07-24T04:47:20;29.10;83.70
20648;DHT22;10483;44.646;10.924;2022-07-24T04:49:47;29.10;83.90
20648;DHT22;10483;44.646;10.924;2022-07-24T04:52:14;29.10;84.10
20648;DHT22;10483;44.646;10.924;2022-07-24T04:54:40;29.10;84.10
20648;DHT22;10483;44.646;10.924;2022-07-24T04:57:07;29.10;84.10
20648;DHT22;10483;44.646;10.924;2022-07-24T04:59:33;29.10;84.10
20648;DHT22;10483;44.646;10.924;2022-07-24T05:02:00;29.10;84.10
20648;DHT22;10483;44.646;10.924;2022-07-24T05:04:27;29.10;84.20
20648;DHT22;10483;44.646;10.924;2022-07-24T05:06:54;29.10;84.50
20648;DHT22;10483;44.646;10.924;2022-07-24T05:09:20;29.20;84.80
20648;DHT22;10483;44.646;10.924;2022-07-24T05:11:47;29.10;84.80
20648;DHT22;10483;44.646;10.924;2022-07-24T05:14:13;29.10;84.90
20648;DHT22;10483;44.646;10.924;2022-07-24T05:16:40;29.10;85.00
20648;DHT22;10483;44.646;10.924;2022-07-24T05:19:07;29.20;85.00
20648;DHT22;10483;44.646;10.924;2022-07-24T05:21:33;29.20;85.10
20648;DHT22;10483;44.646;10.924;2022-07-24T05:24:00;29.20;85.70
20648;DHT22;10483;44.646;10.924;2022-07-24T05:26:29;29.20;84.90
20648;DHT22;10483;44.646;10.924;2022-07-24T05:28:59;29.20;85.10
20648;DHT22;10483;44.646;10.924;2022-07-24T05:31:26;29.20;84.50
20648;DHT22;10483;44.646;10.924;2022-07-24T05:33:53;29.20;84.50
20648;DHT22;10483;44.646;10.924;2022-07-24T05:36:20;29.20;84.40
20648;DHT22;10483;44.646;10.924;2022-07-24T05:38:47;29.20;84.10
20648;DHT22;10483;44.646;10.924;2022-07-24T05:41:14;29.20;84.10
20648;DHT22;10483;44.646;10.924;2022-07-24T05:43:41;29.20;84.60
20648;DHT22;10483;44.646;10.924;2022-07-24T05:46:08;29.30;84.20
20648;DHT22;10483;44.646;10.924;2022-07-24T05:48:34;29.30;84.10
20648;DHT22;10483;44.646;10.924;2022-07-24T05:51:01;29.30;84.20
20648;DHT22;10483;44.646;10.924;2022-07-24T05:53:28;29.30;84.90
20648;DHT22;10483;44.646;10.924;2022-07-24T05:55:55;29.30;85.20
20648;DHT22;10483;44.646;10.924;2022-07-24T05:58:21;29.30;85.70
20648;DHT22;10483;44.646;10.924;2022-07-24T06:00:48;29.30;85.90
20648;DHT22;10483;44.646;10.924;2022-07-24T06:03:14;29.30;86.80
20648;DHT22;10483;44.646;10.924;2022-07-24T06:05:41;29.40;87.00
20648;DHT22;10483;44.646;10.924;2022-07-24T06:08:08;29.40;87.50
20648;DHT22;10483;44.646;10.924;2022-07-24T06:10:35;29.50;87.90
20648;DHT22;10483;44.646;10.924;2022-07-24T06:13:01;29.50;88.10
20648;DHT22;10483;44.646;10.924;2022-07-24T06:15:28;29.50;88.20
20648;DHT22;10483;44.646;10.924;2022-07-24T06:17:55;29.50;89.10
20648;DHT22;10483;44.646;10.924;2022-07-24T06:20:22;29.50;89.40
20648;DHT22;10483;44.646;10.924;2022-07-24T06:22:49;29.50;89.60
20648;DHT22;10483;44.646;10.924;2022-07-24T06:25:16;29.50;89.80
20648;DHT22;10483;44.646;10.924;2022-07-24T06:27:46;29.60;90.10
20648;DHT22;10483;44.646;10.924;2022-07-24T06:30:14;29.60;90.30
20648;DHT22;10483;44.646;10.924;2022-07-24T06:32:42;29.60;90.60
20648;DHT22;10483;44.646;10.924;2022-07-24T06:35:10;29.70;90.70
20648;DHT22;10483;44.646;10.924;2022-07-24T06:37:37;29.70;90.90
20648;DHT22;10483;44.646;10.924;2022-07-24T06:40:05;29.70;91.00
20648;DHT22;10483;44.646;10.924;2022-07-24T06:42:32;29.70;91.10
20648;DHT22;10483;44.646;10.924;2022-07-24T06:44:59;29.80;91.40
20648;DHT22;10483;44.646;10.924;2022-07-24T06:47:25;29.80;91.90
20648;DHT22;10483;44.646;10.924;2022-07-24T06:49:53;29.80;92.10
20648;DHT22;10483;44.646;10.924;2022-07-24T06:52:20;29.80;92.40
20648;DHT22;10483;44.646;10.924;2022-07-24T06:54:46;29.90;92.60
20648;DHT22;10483;44.646;10.924;2022-07-24T06:57:13;29.90;92.80
20648;DHT22;10483;44.646;10.924;2022-07-24T06:59:40;29.90;93.00
20648;DHT22;10483;44.646;10.924;2022-07-24T07:02:07;29.90;93.20
20648;DHT22;10483;44.646;10.924;2022-07-24T07:04:33;29.90;93.50
20648;DHT22;10483;44.646;10.924;2022-07-24T07:07:01;29.90;93.80
20648;DHT22;10483;44.646;10.924;2022-07-24T07:09:28;29.90;94.00
20648;DHT22;10483;44.646;10.924;2022-07-24T07:11:55;30.00;94.70
20648;DHT22;10483;44.646;10.924;2022-07-24T07:14:22;30.00;94.50
20648;DHT22;10483;44.646;10.924;2022-07-24T07:16:49;30.00;94.70
20648;DHT22;10483;44.646;10.924;2022-07-24T07:19:15;30.00;94.90
20648;DHT22;10483;44.646;10.924;2022-07-24T07:21:42;30.10;95.10
20648;DHT22;10483;44.646;10.924;2022-07-24T07:24:09;30.10;95.30
20648;DHT22;10483;44.646;10.924;2022-07-24T07:26:35;30.10;95.50
20648;DHT22;10483;44.646;10.924;2022-07-24T07:29:02;30.10;95.60
20648;DHT22;10483;44.646;10.924;2022-07-24T07:31:29;30.10;96.00
20648;DHT22;10483;44.646;10.924;2022-07-24T07:33:55;30.20;96.20
20648;DHT22;10483;44.646;10.924;2022-07-24T07:36:24;30.20;96.10
20648;DHT22;10483;44.646;10.924;2022-07-24T07:38:51;30.30;96.60
20648;DHT22;10483;44.646;10.924;2022-07-24T07:41:18;30.30;96.40
20648;DHT22;10483;44.646;10.924;2022-07-24T07:43:46;30.40;96.50
20648;DHT22;10483;44.646;10.924;2022-07-24T07:46:14;30.40;96.50
20648;DHT22;10483;44.646;10.924;2022-07-24T07:48:41;30.40;96.30
20648;DHT22;10483;44.646;10.924;2022-07-24T07:51:08;30.50;96.70
20648;DHT22;10483;44.646;10.924;2022-07-24T07:53:35;30.50;96.80
20648;DHT22;10483;44.646;10.924;2022-07-24T07:56:01;30.60;96.70
20648;DHT22;10483;44.646;10.924;2022-07-24T07:58:29;30.60;96.70
20648;DHT22;10483;44.646;10.924;2022-07-24T08:00:56;30.70;96.80
20648;DHT22;10483;44.646;10.924;2022-07-24T08:03:23;30.70;96.90
20648;DHT22;10483;44.646;10.924;2022-07-24T08:05:49;30.70;96.80
20648;DHT22;10483;44.646;10.924;2022-07-24T08:08:16;30.80;96.90
20648;DHT22;10483;44.646;10.924;2022-07-24T08:10:43;30.80;97.00
20648;DHT22;10483;44.646;10.924;2022-07-24T08:13:10;30.80;96.90
20648;DHT22;10483;44.646;10.924;2022-07-24T08:15:38;30.90;96.80
20648;DHT22;10483;44.646;10.924;2022-07-24T08:18:05;30.90;96.80
20648;DHT22;10483;44.646;10.924;2022-07-24T08:20:32;31.00;96.90
20648;DHT22;10483;44.646;10.924;2022-07-24T08:22:58;31.00;96.80
20648;DHT22;10483;44.646;10.924;2022-07-24T08:25:26;31.10;96.70
20648;DHT22;10483;44.646;10.924;2022-07-24T08:27:53;31.10;96.60
20648;DHT22;10483;44.646;10.924;2022-07-24T08:30:19;31.20;96.40
20648;DHT22;10483;44.646;10.924;2022-07-24T08:32:47;31.30;96.40
20648;DHT22;10483;44.646;10.924;2022-07-24T08:35:14;31.30;96.20
20648;DHT22;10483;44.646;10.924;2022-07-24T08:37:42;31.40;96.00
20648;DHT22;10483;44.646;10.924;2022-07-24T08:40:10;31.40;96.10
20648;DHT22;10483;44.646;10.924;2022-07-24T08:42:38;31.50;96.00
20648;DHT22;10483;44.646;10.924;2022-07-24T08:45:05;31.50;95.90
20648;DHT22;10483;44.646;10.924;2022-07-24T08:47:32;31.60;95.90
20648;DHT22;10483;44.646;10.924;2022-07-24T08:49:59;31.60;95.90
20648;DHT22;10483;44.646;10.924;2022-07-24T08:52:29;31.70;96.00
20648;DHT22;10483;44.646;10.924;2022-07-24T08:54:55;31.70;95.60
20648;DHT22;10483;44.646;10.924;2022-07-24T08:57:22;31.80;95.70
20648;DHT22;10483;44.646;10.924;2022-07-24T08:59:49;31.80;95.60
20648;DHT22;10483;44.646;10.924;2022-07-24T09:02:15;31.90;95.50
20648;DHT22;10483;44.646;10.924;2022-07-24T09:04:44;31.90;95.40
20648;DHT22;10483;44.646;10.924;2022-07-24T09:07:15;31.90;95.20
20648;DHT22;10483;44.646;10.924;2022-07-24T09:09:44;32.00;95.20
20648;DHT22;10483;44.646;10.924;2022-07-24T09:12:14;32.10;94.90
20648;DHT22;10483;44.646;10.924;2022-07-24T09:14:43;32.10;94.80
20648;DHT22;10483;44.646;10.924;2022-07-24T09:17:14;32.10;94.60
20648;DHT22;10483;44.646;10.924;2022-07-24T09:19:54;32.20;94.50
20648;DHT22;10483;44.646;10.924;2022-07-24T09:22:25;32.20;94.20
20648;DHT22;10483;44.646;10.924;2022-07-24T09:25:16;32.30;94.10
20648;DHT22;10483;44.646;10.924;2022-07-24T09:27:56;32.30;93.90
20648;DHT22;10483;44.646;10.924;2022-07-24T09:30:27;32.40;93.80
20648;DHT22;10483;44.646;10.924;2022-07-24T09:32:56;32.50;93.60
20648;DHT22;10483;44.646;10.924;2022-07-24T09:35:30;32.50;93.20
20648;DHT22;10483;44.646;10.924;2022-07-24T09:37:57;32.60;93.10
20648;DHT22;10483;44.646;10.924;2022-07-24T09:40:30;32.60;92.70
20648;DHT22;10483;44.646;10.924;2022-07-24T09:43:24;32.70;92.90
20648;DHT22;10483;44.646;10.924;2022-07-24T09:46:00;32.70;93.00
20648;DHT22;10483;44.646;10.924;2022-07-24T09:48:31;32.80;92.90
20648;DHT22;10483;44.646;10.924;2022-07-24T09:51:01;32.90;92.80
20648;DHT22;10483;44.646;10.924;2022-07-24T09:53:31;33.10;92.60
20648;DHT22;10483;44.646;10.924;2022-07-24T09:56:06;33.30;92.20
20648;DHT22;10483;44.646;10.924;2022-07-24T09:58:38;33.40;92.00
20648;DHT22;10483;44.646;10.924;2022-07-24T10:01:07;33.60;91.70
20648;DHT22;10483;44.646;10.924;2022-07-24T10:03:36;33.90;91.40
20648;DHT22;10483;44.646;10.924;2022-07-24T10:06:07;34.00;91.50
20648;DHT22;10483;44.646;10.924;2022-07-24T10:08:35;34.20;91.00
20648;DHT22;10483;44.646;10.924;2022-07-24T10:11:03;34.40;90.80
20648;DHT22;10483;44.646;10.924;2022-07-24T10:13:31;34.70;90.90
20648;DHT22;10483;44.646;10.924;2022-07-24T10:16:24;35.00;90.50
20648;DHT22;10483;44.646;10.924;2022-07-24T10:18:49;35.30;90.20
20648;DHT22;10483;44.646;10.924;2022-07-24T10:21:21;35.60;90.00
20648;DHT22;10483;44.646;10.924;2022-07-24T10:24:10;35.90;89.00
20648;DHT22;10483;44.646;10.924;2022-07-24T10:26:40;36.10;87.90
20648;DHT22;10483;44.646;10.924;2022-07-24T10:29:10;36.50;87.40
20648;DHT22;10483;44.646;10.924;2022-07-24T10:31:40;37.00;86.30
20648;DHT22;10483;44.646;10.924;2022-07-24T10:34:11;37.30;84.80
20648;DHT22;10483;44.646;10.924;2022-07-24T10:36:41;38.00;84.50
20648;DHT22;10483;44.646;10.924;2022-07-24T10:39:13;38.60;83.30
20648;DHT22;10483;44.646;10.924;2022-07-24T10:41:39;39.00;82.40
20648;DHT22;10483;44.646;10.924;2022-07-24T10:44:15;39.20;81.30
20648;DHT22;10483;44.646;10.924;2022-07-24T10:47:04;39.20;80.50
20648;DHT22;10483;44.646;10.924;2022-07-24T10:49:40;39.50;79.80
20648;DHT22;10483;44.646;10.924;2022-07-24T10:52:11;40.20;78.50
20648;DHT22;10483;44.646;10.924;2022-07-24T10:54:39;40.90;76.90
20648;DHT22;10483;44.646;10.924;2022-07-24T10:57:06;41.80;75.10
20648;DHT22;10483;44.646;10.924;2022-07-24T10:59:37;42.50;73.20
20648;DHT22;10483;44.646;10.924;2022-07-24T11:04:42;44.30;70.10
20648;DHT22;10483;44.646;10.924;2022-07-24T11:07:11;44.70;68.80
20648;DHT22;10483;44.646;10.924;2022-07-24T11:12:41;43.10;70.00
20648;DHT22;10483;44.646;10.924;2022-07-24T11:15:04;42.10;71.20
20648;DHT22;10483;44.646;10.924;2022-07-24T11:17:39;41.10;72.20
20648;DHT22;10483;44.646;10.924;2022-07-24T11:20:11;40.20;73.50
20648;DHT22;10483;44.646;10.924;2022-07-24T11:22:51;39.30;74.50
20648;DHT22;10483;44.646;10.924;2022-07-24T11:25:23;38.80;75.30
20648;DHT22;10483;44.646;10.924;2022-07-24T11:27:57;38.20;76.10
20648;DHT22;10483;44.646;10.924;2022-07-24T11:30:26;37.70;77.30
20648;DHT22;10483;44.646;10.924;2022-07-24T11:32:54;37.40;78.50
20648;DHT22;10483;44.646;10.924;2022-07-24T11:35:28;37.10;78.50
20648;DHT22;10483;44.646;10.924;2022-07-24T11:37:55;36.80;78.10
20648;DHT22;10483;44.646;10.924;2022-07-24T11:40:22;36.60;78.60
20648;DHT22;10483;44.646;10.924;2022-07-24T11:42:55;36.40;78.20
20648;DHT22;10483;44.646;10.924;2022-07-24T11:45:22;36.20;80.00
20648;DHT22;10483;44.646;10.924;2022-07-24T11:47:49;36.10;78.40
20648;DHT22;10483;44.646;10.924;2022-07-24T11:50:19;36.00;77.70
20648;DHT22;10483;44.646;10.924;2022-07-24T11:52:46;35.90;78.10
20648;DHT22;10483;44.646;10.924;2022-07-24T11:55:15;35.80;78.00
20648;DHT22;10483;44.646;10.924;2022-07-24T11:57:45;35.60;79.70
20648;DHT22;10483;44.646;10.924;2022-07-24T12:00:15;35.60;78.40
20648;DHT22;10483;44.646;10.924;2022-07-24T12:02:46;35.50;78.70
20648;DHT22;10483;44.646;10.924;2022-07-24T12:05:13;35.50;78.40
20648;DHT22;10483;44.646;10.924;2022-07-24T12:07:40;35.40;80.30
20648;DHT22;10483;44.646;10.924;2022-07-24T12:10:07;35.40;79.40
20648;DHT22;10483;44.646;10.924;2022-07-24T12:12:36;35.40;81.00
20648;DHT22;10483;44.646;10.924;2022-07-24T12:15:11;35.30;79.40
20648;DHT22;10483;44.646;10.924;2022-07-24T12:20:23;35.20;80.10
20648;DHT22;10483;44.646;10.924;2022-07-24T12:22:51;35.10;80.80
20648;DHT22;10483;44.646;10.924;2022-07-24T12:25:18;35.00;79.70
20648;DHT22;10483;44.646;10.924;2022-07-24T12:27:46;35.00;79.60
20648;DHT22;10483;44.646;10.924;2022-07-24T12:30:26;34.90;80.10
20648;DHT22;10483;44.646;10.924;2022-07-24T12:33:02;34.80;83.10
20648;DHT22;10483;44.646;10.924;2022-07-24T12:35:30;34.70;80.20
20648;DHT22;10483;44.646;10.924;2022-07-24T12:37:59;34.80;78.10
20648;DHT22;10483;44.646;10.924;2022-07-24T12:40:33;34.80;81.30
20648;DHT22;10483;44.646;10.924;2022-07-24T12:43:07;34.80;80.30
20648;DHT22;10483;44.646;10.924;2022-07-24T12:45:35;34.70;78.00
20648;DHT22;10483;44.646;10.924;2022-07-24T12:48:16;34.80;76.80
20648;DHT22;10483;44.646;10.924;2022-07-24T12:50:39;34.90;75.80
20648;DHT22;10483;44.646;10.924;2022-07-24T12:53:08;34.90;78.40
20648;DHT22;10483;44.646;10.924;2022-07-24T12:55:36;34.90;77.70
20648;DHT22;10483;44.646;10.924;2022-07-24T12:58:04;34.90;79.70
20648;DHT22;10483;44.646;10.924;2022-07-24T13:00:31;34.90;77.80
20648;DHT22;10483;44.646;10.924;2022-07-24T13:02:58;34.80;76.40
20648;DHT22;10483;44.646;10.924;2022-07-24T13:05:36;34.90;75.60
20648;DHT22;10483;44.646;10.924;2022-07-24T13:08:04;34.90;75.50
20648;DHT22;10483;44.646;10.924;2022-07-24T13:10:31;34.80;76.00
20648;DHT22;10483;44.646;10.924;2022-07-24T13:12:57;34.90;76.30
20648;DHT22;10483;44.646;10.924;2022-07-24T13:15:24;34.80;75.10
20648;DHT22;10483;44.646;10.924;2022-07-24T13:17:51;34.80;77.10
20648;DHT22;10483;44.646;10.924;2022-07-24T13:20:19;34.90;75.50
20648;DHT22;10483;44.646;10.924;2022-07-24T13:22:45;34.80;75.30
20648;DHT22;10483;44.646;10.924;2022-07-24T13:25:12;34.80;75.20
20648;DHT22;10483;44.646;10.924;2022-07-24T13:27:39;34.80;77.50
20648;DHT22;10483;44.646;10.924;2022-07-24T13:30:06;34.70;78.50
20648;DHT22;10483;44.646;10.924;2022-07-24T13:32:33;34.70;79.00
20648;DHT22;10483;44.646;10.924;2022-07-24T13:35:00;34.70;76.60
20648;DHT22;10483;44.646;10.924;2022-07-24T13:37:26;34.70;76.90
20648;DHT22;10483;44.646;10.924;2022-07-24T13:39:53;34.70;78.00
20648;DHT22;10483;44.646;10.924;2022-07-24T13:42:19;34.70;77.90
20648;DHT22;10483;44.646;10.924;2022-07-24T13:44:46;34.70;75.90
20648;DHT22;10483;44.646;10.924;2022-07-24T13:47:13;34.70;76.90
20648;DHT22;10483;44.646;10.924;2022-07-24T13:49:39;34.70;76.20
20648;DHT22;10483;44.646;10.924;2022-07-24T13:52:06;34.70;79.40
20648;DHT22;10483;44.646;10.924;2022-07-24T13:54:33;34.60;78.80
20648;DHT22;10483;44.646;10.924;2022-07-24T13:56:59;34.70;77.00
20648;DHT22;10483;44.646;10.924;2022-07-24T13:59:28;34.60;78.60
20648;DHT22;10483;44.646;10.924;2022-07-24T14:01:55;34.70;78.60
20648;DHT22;10483;44.646;10.924;2022-07-24T14:04:21;34.60;79.90
20648;DHT22;10483;44.646;10.924;2022-07-24T14:06:48;34.60;80.70
20648;DHT22;10483;44.646;10.924;2022-07-24T14:09:14;34.60;79.90
20648;DHT22;10483;44.646;10.924;2022-07-24T14:11:41;34.50;78.20
20648;DHT22;10483;44.646;10.924;2022-07-24T14:14:08;34.50;78.90
20648;DHT22;10483;44.646;10.924;2022-07-24T14:16:34;34.50;76.60
20648;DHT22;10483;44.646;10.924;2022-07-24T14:19:02;34.50;77.60
20648;DHT22;10483;44.646;10.924;2022-07-24T14:21:29;34.60;77.10
20648;DHT22;10483;44.646;10.924;2022-07-24T14:23:56;34.50;80.00
20648;DHT22;10483;44.646;10.924;2022-07-24T14:26:22;34.50;79.80
20648;DHT22;10483;44.646;10.924;2022-07-24T14:28:49;34.50;78.30
20648;DHT22;10483;44.646;10.924;2022-07-24T14:31:16;34.50;77.40
20648;DHT22;10483;44.646;10.924;2022-07-24T14:33:42;34.50;76.60
20648;DHT22;10483;44.646;10.924;2022-07-24T14:36:09;34.50;79.30
20648;DHT22;10483;44.646;10.924;2022-07-24T14:38:35;34.40;78.20
20648;DHT22;10483;44.646;10.924;2022-07-24T14:41:02;34.40;77.70
20648;DHT22;10483;44.646;10.924;2022-07-24T14:43:29;34.40;78.70
20648;DHT22;10483;44.646;10.924;2022-07-24T14:45:55;34.30;78.60
20648;DHT22;10483;44.646;10.924;2022-07-24T14:48:22;34.30;78.10
20648;DHT22;10483;44.646;10.924;2022-07-24T14:50:48;34.30;78.70
20648;DHT22;10483;44.646;10.924;2022-07-24T14:53:15;34.40;78.50
20648;DHT22;10483;44.646;10.924;2022-07-24T14:55:42;34.30;79.40
20648;DHT22;10483;44.646;10.924;2022-07-24T14:58:08;34.30;78.10
20648;DHT22;10483;44.646;10.924;2022-07-24T15:00:35;34.30;77.90
20648;DHT22;10483;44.646;10.924;2022-07-24T15:03:02;34.40;78.80
20648;DHT22;10483;44.646;10.924;2022-07-24T15:05:28;34.30;80.60
20648;DHT22;10483;44.646;10.924;2022-07-24T15:07:55;34.40;76.80
20648;DHT22;10483;44.646;10.924;2022-07-24T15:10:22;34.50;76.40
20648;DHT22;10483;44.646;10.924;2022-07-24T15:12:48;34.50;79.70
20648;DHT22;10483;44.646;10.924;2022-07-24T15:15:15;34.40;77.70
20648;DHT22;10483;44.646;10.924;2022-07-24T15:17:42;34.40;80.90
20648;DHT22;10483;44.646;10.924;2022-07-24T15:20:09;34.50;75.70
20648;DHT22;10483;44.646;10.924;2022-07-24T15:22:36;34.60;75.60
20648;DHT22;10483;44.646;10.924;2022-07-24T15:25:03;34.60;76.20
20648;DHT22;10483;44.646;10.924;2022-07-24T15:27:29;34.50;80.10